<?xml version="1.0" encoding="utf-8"?>
<gpx xmlns:xsi="http://www.w3.org/2001/XMLSchema-instance" xmlns:xsd="http://www.w3.org/2001/XMLSchema" version="1.1" creator="Shapelink.com" xmlns="http://www.topografix.com/GPX/1/1" xmlns:gpxtpx="http://www.garmin.com/xmlschemas/TrackPointExtension/v1">
  <metadata>
    <name>Cycling 2.23 km, 2020-07-29</name>
    <desc></desc>
    <author><name>Marian Moron</name></author> 
    <time>2020-07-29T17:42:06Z</time>
  </metadata>
  <trk>
    <name>Cycling 2.23 km, 2020-07-29</name>
    <trkseg>
      <trkpt lat="51.236385799556" lon="4.480272903802">
        <ele>0</ele>
        <time>2020-07-29T17:42:06Z</time>
      </trkpt>
      <trkpt lat="51.236405077926" lon="4.47940386841">
        <ele>0</ele>
        <time>2020-07-29T17:42:22Z</time>
      </trkpt>
      <trkpt lat="51.236389319954" lon="4.478518153037">
        <ele>0</ele>
        <time>2020-07-29T17:42:37Z</time>
      </trkpt>
      <trkpt lat="51.23634020202" lon="4.478096878743">
        <ele>0</ele>
        <time>2020-07-29T17:42:43Z</time>
      </trkpt>
      <trkpt lat="51.236167953975" lon="4.477222814211">
        <ele>0</ele>
        <time>2020-07-29T17:42:57Z</time>
      </trkpt>
      <trkpt lat="51.235966453099" lon="4.476357466855">
        <ele>0</ele>
        <time>2020-07-29T17:43:11Z</time>
      </trkpt>
      <trkpt lat="51.235792109579" lon="4.475542913813">
        <ele>0</ele>
        <time>2020-07-29T17:43:23Z</time>
      </trkpt>
      <trkpt lat="51.235626818511" lon="4.474706567831">
        <ele>0</ele>
        <time>2020-07-29T17:43:34Z</time>
      </trkpt>
      <trkpt lat="51.235441997616" lon="4.473842226303">
        <ele>0</ele>
        <time>2020-07-29T17:43:45Z</time>
      </trkpt>
      <trkpt lat="51.235264385155" lon="4.472990373806">
        <ele>0</ele>
        <time>2020-07-29T17:43:56Z</time>
      </trkpt>
      <trkpt lat="51.235090628368" lon="4.472105245166">
        <ele>0</ele>
        <time>2020-07-29T17:44:07Z</time>
      </trkpt>
      <trkpt lat="51.234925840214" lon="4.47119547374">
        <ele>0</ele>
        <time>2020-07-29T17:44:18Z</time>
      </trkpt>
      <trkpt lat="51.234812265469" lon="4.470298861897">
        <ele>0</ele>
        <time>2020-07-29T17:44:28Z</time>
      </trkpt>
      <trkpt lat="51.234795334031" lon="4.470220323494">
        <ele>0</ele>
        <time>2020-07-29T17:44:29Z</time>
      </trkpt>
      <trkpt lat="51.23465041098" lon="4.469364782961">
        <ele>0</ele>
        <time>2020-07-29T17:44:39Z</time>
      </trkpt>
      <trkpt lat="51.23451881515" lon="4.468510499713">
        <ele>0</ele>
        <time>2020-07-29T17:44:49Z</time>
      </trkpt>
      <trkpt lat="51.234382776913" lon="4.467597626984">
        <ele>0</ele>
        <time>2020-07-29T17:44:59Z</time>
      </trkpt>
      <trkpt lat="51.234238524414" lon="4.466697159467">
        <ele>0</ele>
        <time>2020-07-29T17:45:09Z</time>
      </trkpt>
      <trkpt lat="51.234100725978" lon="4.465836841251">
        <ele>0</ele>
        <time>2020-07-29T17:45:19Z</time>
      </trkpt>
      <trkpt lat="51.234042136497" lon="4.465313140139">
        <ele>0</ele>
        <time>2020-07-29T17:45:32Z</time>
      </trkpt>
      <trkpt lat="51.234009279449" lon="4.465107867408">
        <ele>0</ele>
        <time>2020-07-29T17:45:59Z</time>
      </trkpt>
      <trkpt lat="51.233868463529" lon="4.464265821734">
        <ele>0</ele>
        <time>2020-07-29T17:46:13Z</time>
      </trkpt>
      <trkpt lat="51.233742818848" lon="4.463404832966">
        <ele>0</ele>
        <time>2020-07-29T17:46:25Z</time>
      </trkpt>
      <trkpt lat="51.233601164738" lon="4.462518027946">
        <ele>0</ele>
        <time>2020-07-29T17:46:36Z</time>
      </trkpt>
      <trkpt lat="51.233475939152" lon="4.461637760808">
        <ele>0</ele>
        <time>2020-07-29T17:46:46Z</time>
      </trkpt>
      <trkpt lat="51.233342247847" lon="4.46073570073">
        <ele>0</ele>
        <time>2020-07-29T17:46:57Z</time>
      </trkpt>
      <trkpt lat="51.233183410842" lon="4.459906227906">
        <ele>0</ele>
        <time>2020-07-29T17:47:07Z</time>
      </trkpt>
      <trkpt lat="51.23316765287" lon="4.459830204073">
        <ele>0</ele>
        <time>2020-07-29T17:47:08Z</time>
      </trkpt>
      <trkpt lat="51.233147703948" lon="4.459668936317">
        <ele>0</ele>
        <time>2020-07-29T17:47:10Z</time>
      </trkpt>
      <trkpt lat="51.232993476988" lon="4.458834099077">
        <ele>0</ele>
        <time>2020-07-29T17:47:20Z</time>
      </trkpt>
      <trkpt lat="51.232824162608" lon="4.457970428101">
        <ele>0</ele>
        <time>2020-07-29T17:47:32Z</time>
      </trkpt>
      <trkpt lat="51.232779151805" lon="4.457782924998">
        <ele>0</ele>
        <time>2020-07-29T17:47:39Z</time>
      </trkpt>
      <trkpt lat="51.232292498691" lon="4.45785567989">
        <ele>0</ele>
        <time>2020-07-29T17:49:25Z</time>
      </trkpt>
      <trkpt lat="51.231778269126" lon="4.458216772142">
        <ele>0</ele>
        <time>2020-07-29T17:49:38Z</time>
      </trkpt>
      <trkpt lat="51.231243671544" lon="4.458578786403">
        <ele>0</ele>
        <time>2020-07-29T17:49:53Z</time>
      </trkpt>
      <trkpt lat="51.230701614071" lon="4.458780287279">
        <ele>0</ele>
        <time>2020-07-29T17:50:04Z</time>
      </trkpt>
      <trkpt lat="51.230133321251" lon="4.45887156617">
        <ele>0.4</ele>
        <time>2020-07-29T17:50:20Z</time>
      </trkpt>
      <trkpt lat="51.229598891307" lon="4.458991343521">
        <ele>0</ele>
        <time>2020-07-29T17:50:31Z</time>
      </trkpt>
      <trkpt lat="51.229034957075" lon="4.459147414499">
        <ele>0</ele>
        <time>2020-07-29T17:50:42Z</time>
      </trkpt>
      <trkpt lat="51.22870932026" lon="4.459236514096">
        <ele>0</ele>
        <time>2020-07-29T17:50:49Z</time>
      </trkpt>
      <trkpt lat="51.22856766615" lon="4.45891431386">
        <ele>0</ele>
        <time>2020-07-29T17:50:55Z</time>
      </trkpt>
      <trkpt lat="51.228569845444" lon="4.458366891971">
        <ele>0</ele>
        <time>2020-07-29T17:51:02Z</time>
      </trkpt>
      <trkpt lat="51.229058426395" lon="4.458079644258">
        <ele>3</ele>
        <time>2020-07-29T17:51:15Z</time>
      </trkpt>
      <trkpt lat="51.229602998438" lon="4.457923740918">
        <ele>3.2</ele>
        <time>2020-07-29T17:51:29Z</time>
      </trkpt>
      <trkpt lat="51.229639124427" lon="4.457918460321">
        <ele>3.8</ele>
        <time>2020-07-29T17:51:32Z</time>
      </trkpt>
    </trkseg>
  </trk>
</gpx>